createdAt,value
2019-03-29T00:00:11.949Z,12.50
2019-03-29T00:02:43.290Z,11.43
2019-03-29T00:05:14.829Z,11.03
2019-03-29T00:07:46.239Z,11.70
2019-03-29T00:10:17.513Z,11.27
2019-03-29T00:12:49.064Z,11.77
2019-03-29T00:15:20.345Z,12.77
2019-03-29T00:17:51.955Z,13.67
2019-03-29T00:20:23.573Z,12.30
2019-03-29T00:22:55.063Z,12.80
2019-03-29T00:25:26.861Z,13.37
2019-03-29T00:27:58.344Z,13.43
2019-03-29T00:30:29.526Z,14.30
2019-03-29T00:33:00.913Z,14.13
2019-03-29T00:35:32.422Z,12.50
2019-03-29T00:38:03.907Z,12.30
2019-03-29T00:40:35.569Z,13.17
2019-03-29T00:43:07.026Z,12.63
2019-03-29T00:45:38.494Z,13.63
2019-03-29T00:48:10.153Z,13.43
2019-03-29T00:50:41.783Z,12.57
2019-03-29T00:53:13.372Z,11.83
2019-03-29T00:55:44.666Z,12.57
2019-03-29T00:58:16.060Z,13.60
2019-03-29T01:00:47.488Z,13.93
2019-03-29T01:03:18.914Z,14.37
2019-03-29T01:05:50.333Z,13.93
2019-03-29T01:08:21.884Z,14.43
2019-03-29T01:10:53.265Z,13.67
2019-03-29T01:13:24.924Z,14.77
2019-03-29T01:15:56.479Z,16.27
2019-03-29T01:18:27.933Z,15.00
2019-03-29T01:20:59.296Z,14.40
2019-03-29T01:23:30.860Z,15.07
2019-03-29T01:26:02.419Z,15.00
2019-03-29T01:28:33.988Z,14.50
2019-03-29T01:31:05.440Z,14.87
2019-03-29T01:33:36.792Z,14.20
2019-03-29T01:36:08.271Z,13.37
2019-03-29T01:38:39.627Z,15.80
2019-03-29T01:41:10.937Z,15.37
2019-03-29T01:43:42.421Z,15.23
2019-03-29T01:46:13.886Z,16.57
2019-03-29T01:48:45.289Z,14.47
2019-03-29T01:51:16.691Z,15.37
2019-03-29T01:53:48.111Z,17.47
2019-03-29T01:56:19.545Z,16.60
2019-03-29T01:58:51.005Z,16.57
2019-03-29T02:01:22.376Z,17.50
2019-03-29T02:03:53.869Z,17.87
2019-03-29T02:06:25.192Z,17.23
2019-03-29T02:08:56.820Z,17.97
2019-03-29T02:11:28.352Z,19.63
2019-03-29T02:13:59.628Z,20.03
2019-03-29T02:16:30.996Z,18.70
2019-03-29T02:19:02.213Z,18.57
2019-03-29T02:21:33.543Z,18.47
2019-03-29T02:24:04.968Z,18.83
2019-03-29T02:26:36.139Z,17.63
2019-03-29T02:29:07.370Z,19.80
2019-03-29T02:31:42.075Z,19.80
2019-03-29T02:34:11.546Z,19.37
2019-03-29T02:36:42.824Z,19.17
2019-03-29T02:39:14.172Z,17.60
2019-03-29T02:41:46.601Z,17.77
2019-03-29T02:44:18.171Z,20.47
2019-03-29T02:46:49.443Z,20.53
2019-03-29T02:49:20.754Z,21.10
2019-03-29T02:51:51.981Z,21.03
2019-03-29T02:54:23.233Z,20.17
2019-03-29T02:56:54.607Z,20.87
2019-03-29T02:59:25.972Z,21.77
2019-03-29T03:01:57.314Z,22.17
2019-03-29T03:04:28.654Z,20.53
2019-03-29T03:06:59.957Z,23.53
2019-03-29T03:09:31.252Z,22.43
2019-03-29T03:12:02.423Z,22.27
2019-03-29T03:14:33.708Z,24.37
2019-03-29T03:17:05.009Z,25.53
2019-03-29T03:19:36.316Z,25.37
2019-03-29T03:22:07.633Z,23.57
2019-03-29T03:24:38.875Z,25.50
2019-03-29T03:27:10.177Z,25.83
2019-03-29T03:29:41.561Z,27.67
2019-03-29T03:32:12.768Z,27.70
2019-03-29T03:34:44.097Z,27.33
2019-03-29T03:37:15.400Z,28.17
2019-03-29T03:39:46.641Z,27.90
2019-03-29T03:42:17.896Z,28.93
2019-03-29T03:44:49.176Z,26.63
2019-03-29T03:47:20.488Z,27.60
2019-03-29T03:49:51.775Z,26.63
2019-03-29T03:52:23.036Z,27.47
2019-03-29T03:54:54.278Z,26.80
2019-03-29T03:57:26.540Z,26.33
2019-03-29T03:59:58.504Z,26.23
2019-03-29T04:02:29.650Z,23.90
2019-03-29T04:05:00.901Z,23.87
2019-03-29T04:07:32.135Z,25.43
2019-03-29T04:10:03.474Z,24.67
2019-03-29T04:12:34.643Z,24.23
2019-03-29T04:15:06.400Z,22.37
2019-03-29T04:17:37.684Z,23.50
2019-03-29T04:20:09.164Z,22.43
2019-03-29T04:22:40.440Z,25.37
2019-03-29T04:25:11.703Z,23.23
2019-03-29T04:27:43.000Z,24.47
2019-03-29T04:30:14.983Z,24.50
2019-03-29T04:32:46.254Z,23.57
2019-03-29T04:35:17.560Z,23.53
2019-03-29T04:37:48.939Z,21.53
2019-03-29T04:40:20.233Z,21.83
2019-03-29T04:42:51.454Z,25.17
2019-03-29T04:45:22.790Z,24.23
2019-03-29T04:47:54.042Z,24.43
2019-03-29T04:50:25.235Z,24.80
2019-03-29T04:52:56.537Z,23.83
2019-03-29T04:55:27.806Z,27.60
2019-03-29T04:57:59.069Z,25.17
2019-03-29T05:00:30.412Z,25.47
2019-03-29T05:03:01.677Z,27.47
2019-03-29T05:05:32.944Z,26.53
2019-03-29T05:08:04.220Z,25.97
2019-03-29T05:10:35.464Z,25.33
2019-03-29T05:13:06.712Z,24.97
2019-03-29T05:15:37.893Z,26.20
2019-03-29T05:18:09.144Z,26.87
2019-03-29T05:20:40.351Z,25.30
2019-03-29T05:23:11.664Z,26.33
2019-03-29T05:25:42.859Z,26.03
2019-03-29T05:28:13.958Z,26.37
2019-03-29T05:30:45.273Z,24.40
2019-03-29T05:33:16.642Z,23.87
2019-03-29T05:35:47.856Z,22.80
2019-03-29T05:38:19.119Z,22.63
2019-03-29T05:40:50.307Z,23.87
2019-03-29T05:43:21.594Z,22.80
2019-03-29T05:45:52.806Z,21.97
2019-03-29T05:48:24.013Z,23.33
2019-03-29T05:50:55.281Z,21.20
2019-03-29T05:53:26.683Z,21.07
2019-03-29T05:55:58.013Z,21.43
2019-03-29T05:58:29.289Z,21.53
2019-03-29T06:01:00.515Z,21.30
2019-03-29T06:03:31.686Z,22.10
2019-03-29T06:06:02.965Z,22.93
2019-03-29T06:08:34.134Z,20.97
2019-03-29T06:11:05.385Z,21.87
2019-03-29T06:13:36.642Z,22.17
2019-03-29T06:16:07.991Z,21.13
2019-03-29T06:18:39.153Z,21.93
2019-03-29T06:21:10.379Z,20.70
2019-03-29T06:23:41.577Z,21.67
2019-03-29T06:26:12.808Z,21.17
2019-03-29T06:28:44.114Z,21.70
2019-03-29T06:31:15.274Z,21.87
2019-03-29T06:33:46.463Z,20.97
2019-03-29T06:36:18.522Z,21.70
2019-03-29T06:38:50.816Z,21.50
2019-03-29T06:41:22.062Z,21.37
2019-03-29T06:43:53.336Z,19.70
2019-03-29T06:46:24.623Z,21.30
2019-03-29T06:48:55.924Z,19.43
2019-03-29T06:51:27.208Z,20.57
2019-03-29T06:53:58.402Z,21.37
2019-03-29T06:56:29.743Z,28.20
2019-03-29T06:59:00.874Z,20.43
2019-03-29T07:01:33.982Z,18.73
2019-03-29T07:04:05.284Z,20.33
2019-03-29T07:06:36.578Z,22.80
2019-03-29T07:09:08.517Z,17.77
2019-03-29T07:11:39.874Z,17.47
2019-03-29T07:14:11.273Z,18.73
2019-03-29T07:16:42.564Z,18.40
2019-03-29T07:19:13.709Z,17.50
2019-03-29T07:21:44.973Z,18.97
2019-03-29T07:24:16.155Z,19.37
2019-03-29T07:26:47.410Z,19.10
2019-03-29T07:29:18.498Z,20.37
2019-03-29T07:31:52.994Z,19.53
2019-03-29T07:34:22.830Z,18.57
2019-03-29T07:36:53.936Z,19.80
2019-03-29T07:39:25.214Z,20.00
2019-03-29T07:41:56.535Z,19.33
2019-03-29T07:44:27.784Z,19.43
2019-03-29T07:46:59.127Z,19.03
2019-03-29T07:49:30.463Z,19.37
2019-03-29T07:52:01.760Z,17.87
2019-03-29T07:54:33.009Z,17.73
2019-03-29T07:57:04.265Z,17.23
2019-03-29T07:59:35.558Z,17.67
2019-03-29T08:02:06.868Z,16.97
2019-03-29T08:04:38.168Z,17.53
2019-03-29T08:07:09.453Z,17.53
2019-03-29T08:09:40.680Z,16.73
2019-03-29T08:12:11.952Z,17.60
2019-03-29T08:14:43.278Z,15.63
2019-03-29T08:17:14.533Z,17.07
2019-03-29T08:19:46.242Z,16.70
2019-03-29T08:22:17.531Z,16.80
2019-03-29T08:24:48.750Z,16.77
2019-03-29T08:27:20.044Z,15.53
2019-03-29T08:29:51.375Z,15.50
2019-03-29T08:32:22.709Z,15.67
2019-03-29T08:34:53.996Z,14.27
2019-03-29T08:37:25.177Z,16.27
2019-03-29T08:39:56.730Z,15.23
2019-03-29T08:42:28.082Z,16.13
2019-03-29T08:44:59.318Z,14.97
2019-03-29T08:47:30.581Z,15.73
2019-03-29T08:50:01.862Z,14.47
2019-03-29T08:52:33.082Z,14.73
2019-03-29T08:55:04.909Z,14.47
2019-03-29T08:57:36.208Z,13.10
2019-03-29T09:00:08.846Z,13.70
2019-03-29T09:02:40.126Z,13.70
2019-03-29T09:05:11.495Z,13.27
2019-03-29T09:07:45.114Z,12.43
2019-03-29T09:10:26.007Z,12.60
2019-03-29T09:12:57.251Z,12.97
2019-03-29T09:15:28.609Z,13.00
2019-03-29T09:18:00.287Z,13.90
2019-03-29T09:20:34.275Z,12.90
2019-03-29T09:23:04.573Z,13.53
2019-03-29T09:25:36.233Z,14.13
2019-03-29T09:28:07.484Z,13.93
2019-03-29T09:30:38.765Z,13.53
2019-03-29T09:33:10.104Z,13.83
2019-03-29T09:35:42.973Z,14.40
2019-03-29T09:38:14.294Z,14.27
2019-03-29T09:40:57.440Z,13.50
2019-03-29T09:43:18.654Z,13.87
2019-03-29T09:45:49.891Z,13.20
2019-03-29T09:48:21.849Z,13.03
2019-03-29T09:50:53.091Z,12.90
2019-03-29T09:53:24.954Z,14.37
2019-03-29T09:55:56.195Z,14.17
2019-03-29T09:58:27.524Z,14.20
2019-03-29T10:00:58.782Z,16.07
2019-03-29T10:03:30.151Z,16.17
2019-03-29T10:06:02.117Z,16.13
2019-03-29T10:08:33.453Z,14.77
2019-03-29T10:11:04.754Z,13.97
2019-03-29T10:13:35.967Z,13.80
2019-03-29T10:16:07.216Z,13.27
2019-03-29T10:18:38.474Z,13.27
2019-03-29T10:21:09.760Z,11.30
2019-03-29T10:23:41.042Z,12.00
2019-03-29T10:26:12.306Z,12.43
2019-03-29T10:28:43.552Z,12.33
2019-03-29T10:31:14.810Z,12.07
2019-03-29T10:33:48.863Z,13.57
2019-03-29T10:36:18.854Z,12.80
2019-03-29T10:38:50.113Z,11.90
2019-03-29T10:41:22.556Z,11.47
2019-03-29T10:43:54.232Z,11.80
2019-03-29T10:46:26.023Z,12.13
2019-03-29T10:48:57.545Z,12.33
2019-03-29T10:51:28.802Z,11.43
2019-03-29T10:54:00.065Z,10.93
2019-03-29T10:56:34.300Z,10.13
2019-03-29T10:59:04.333Z,9.90
2019-03-29T11:01:35.445Z,10.47
2019-03-29T11:04:06.743Z,10.63
2019-03-29T11:06:37.999Z,10.83
2019-03-29T11:09:09.974Z,10.97
2019-03-29T11:11:41.123Z,9.63
2019-03-29T11:14:12.385Z,11.03
2019-03-29T11:16:43.786Z,11.37
2019-03-29T11:19:15.015Z,11.07
2019-03-29T11:21:46.309Z,11.90
2019-03-29T11:24:17.742Z,11.93
2019-03-29T11:26:49.064Z,11.37
2019-03-29T11:29:20.344Z,11.13
2019-03-29T11:31:52.933Z,11.70
2019-03-29T11:34:24.961Z,12.10
2019-03-29T11:36:56.147Z,12.87
2019-03-29T11:39:27.684Z,12.57
2019-03-29T11:41:59.156Z,10.77
2019-03-29T11:44:30.530Z,11.17
2019-03-29T11:47:01.813Z,11.37
2019-03-29T11:49:33.335Z,11.20
2019-03-29T11:52:04.721Z,11.27
2019-03-29T11:54:36.026Z,12.07
2019-03-29T11:57:07.381Z,11.23
2019-03-29T11:59:40.307Z,11.77
2019-03-29T12:02:11.652Z,11.50
2019-03-29T12:04:42.894Z,11.47
2019-03-29T12:07:14.225Z,11.23
2019-03-29T12:09:45.491Z,11.40
2019-03-29T12:12:17.514Z,10.93
2019-03-29T12:14:48.874Z,12.07
2019-03-29T12:17:20.095Z,11.27
2019-03-29T12:19:51.436Z,12.13
2019-03-29T12:22:22.721Z,10.70
2019-03-29T12:24:53.838Z,11.63
2019-03-29T12:27:25.046Z,12.13
2019-03-29T12:29:56.227Z,12.23
2019-03-29T12:32:27.484Z,12.57
2019-03-29T12:34:58.807Z,11.67
2019-03-29T12:37:30.093Z,11.40
2019-03-29T12:40:01.416Z,12.93
2019-03-29T12:42:32.520Z,11.53
2019-03-29T12:45:03.678Z,12.00
2019-03-29T12:47:35.006Z,12.60
2019-03-29T12:50:06.360Z,12.07
2019-03-29T12:52:37.635Z,11.87
2019-03-29T12:55:08.868Z,11.83
2019-03-29T12:57:40.089Z,11.77
2019-03-29T13:00:13.251Z,11.83
2019-03-29T13:02:44.567Z,11.10
2019-03-29T13:05:15.786Z,11.60
2019-03-29T13:07:53.158Z,11.50
2019-03-29T13:10:23.383Z,11.70
2019-03-29T13:12:54.649Z,12.23
2019-03-29T13:15:26.061Z,12.00
2019-03-29T13:17:57.306Z,13.40
2019-03-29T13:20:28.501Z,13.37
2019-03-29T13:22:59.754Z,13.73
2019-03-29T13:25:30.916Z,12.27
2019-03-29T13:28:02.201Z,13.07
2019-03-29T13:30:33.453Z,13.33
2019-03-29T13:33:04.799Z,13.20
2019-03-29T13:35:35.993Z,13.07
2019-03-29T13:38:07.239Z,12.93
2019-03-29T13:40:39.778Z,12.23
2019-03-29T13:43:10.987Z,12.67
2019-03-29T13:45:42.272Z,12.80
2019-03-29T13:48:13.586Z,13.20
2019-03-29T13:50:44.861Z,12.80
2019-03-29T13:53:16.090Z,13.27
2019-03-29T13:55:47.276Z,13.07
2019-03-29T13:58:18.552Z,12.97
2019-03-29T14:00:49.744Z,12.23
2019-03-29T14:03:21.008Z,13.03
2019-03-29T14:05:52.218Z,13.40
2019-03-29T14:08:23.523Z,12.93
2019-03-29T14:10:54.883Z,13.00
2019-03-29T14:13:26.144Z,12.70
2019-03-29T14:15:57.433Z,12.80
2019-03-29T14:18:28.703Z,12.17
2019-03-29T14:21:00.022Z,12.33
2019-03-29T14:23:31.359Z,12.63
2019-03-29T14:26:02.531Z,12.70
2019-03-29T14:28:33.658Z,12.63
2019-03-29T14:31:04.949Z,13.73
2019-03-29T14:33:36.241Z,13.10
2019-03-29T14:36:07.498Z,13.40
2019-03-29T14:38:38.800Z,12.87
2019-03-29T14:41:10.027Z,12.73
2019-03-29T14:43:41.337Z,13.03
2019-03-29T14:46:12.567Z,12.87
2019-03-29T14:48:43.836Z,13.13
2019-03-29T14:51:15.046Z,12.53
2019-03-29T14:53:46.192Z,13.20
2019-03-29T14:56:17.379Z,14.13
2019-03-29T14:58:48.630Z,13.00
2019-03-29T15:01:19.888Z,13.00
2019-03-29T15:03:51.143Z,14.17
2019-03-29T15:06:22.262Z,14.87
2019-03-29T15:08:53.648Z,18.93
2019-03-29T15:11:24.952Z,13.47
2019-03-29T15:13:56.166Z,13.60
2019-03-29T15:16:27.427Z,13.93
2019-03-29T15:18:58.696Z,13.10
2019-03-29T15:21:30.023Z,12.70
2019-03-29T15:24:01.232Z,12.87
2019-03-29T15:26:32.415Z,13.17
2019-03-29T15:29:03.680Z,14.20
2019-03-29T15:31:35.482Z,13.90
2019-03-29T15:34:06.636Z,12.67
2019-03-29T15:36:37.971Z,12.70
2019-03-29T15:39:09.603Z,14.07
2019-03-29T15:41:40.850Z,12.63
2019-03-29T15:44:12.139Z,12.63
2019-03-29T15:46:43.419Z,12.23
2019-03-29T15:49:14.653Z,12.77
2019-03-29T15:51:45.918Z,12.93
2019-03-29T15:54:17.223Z,11.83
2019-03-29T15:56:48.519Z,12.23
2019-03-29T15:59:19.765Z,12.43
2019-03-29T16:01:51.067Z,12.13
2019-03-29T16:04:22.387Z,12.27
2019-03-29T16:06:53.680Z,12.57
2019-03-29T16:09:24.930Z,12.20
2019-03-29T16:11:56.150Z,13.00
2019-03-29T16:14:27.423Z,13.63
2019-03-29T16:16:58.609Z,13.10
2019-03-29T16:19:29.810Z,14.30
2019-03-29T16:22:01.043Z,13.47
2019-03-29T16:24:32.411Z,14.07
2019-03-29T16:27:03.655Z,13.80
2019-03-29T16:29:34.834Z,13.30
2019-03-29T16:32:06.134Z,13.43
2019-03-29T16:34:37.448Z,12.10
2019-03-29T16:37:08.697Z,12.90
2019-03-29T16:39:40.001Z,13.13
2019-03-29T16:42:11.118Z,13.27
2019-03-29T16:44:42.446Z,14.17
2019-03-29T16:47:13.774Z,14.07
2019-03-29T16:49:44.962Z,13.70
2019-03-29T16:52:16.288Z,14.30
2019-03-29T16:54:47.474Z,14.20
2019-03-29T16:57:18.785Z,13.27
2019-03-29T16:59:50.023Z,13.67
2019-03-29T17:02:21.383Z,14.73
2019-03-29T17:04:52.708Z,13.70
2019-03-29T17:07:24.106Z,13.27
2019-03-29T17:09:55.341Z,14.43
2019-03-29T17:12:26.540Z,13.97
2019-03-29T17:14:57.765Z,13.83
2019-03-29T17:17:29.027Z,13.93
2019-03-29T17:20:00.493Z,14.23
2019-03-29T17:22:31.825Z,14.00
2019-03-29T17:25:03.190Z,14.43
2019-03-29T17:27:34.342Z,12.63
2019-03-29T17:30:07.531Z,13.80
2019-03-29T17:32:38.713Z,13.40
2019-03-29T17:35:10.077Z,13.07
2019-03-29T17:37:41.341Z,13.73
2019-03-29T17:40:13.267Z,13.93
2019-03-29T17:42:44.484Z,14.00
2019-03-29T17:45:15.748Z,12.27
2019-03-29T17:47:47.023Z,13.37
2019-03-29T17:50:18.168Z,13.40
2019-03-29T17:52:49.418Z,14.03
2019-03-29T17:55:20.631Z,13.27
2019-03-29T17:57:51.862Z,14.00
2019-03-29T18:00:24.770Z,12.87
2019-03-29T18:02:56.077Z,14.47
2019-03-29T18:05:27.370Z,15.73
2019-03-29T18:07:58.624Z,16.60
2019-03-29T18:10:29.995Z,15.10
2019-03-29T18:13:01.356Z,16.17
2019-03-29T18:15:32.681Z,14.67
2019-03-29T18:18:03.901Z,15.23
2019-03-29T18:20:35.156Z,14.93
2019-03-29T18:23:06.521Z,14.17
2019-03-29T18:25:37.831Z,14.67
2019-03-29T18:28:09.180Z,14.97
2019-03-29T18:30:42.885Z,13.63
2019-03-29T18:33:14.236Z,14.00
2019-03-29T18:35:45.460Z,14.13
2019-03-29T18:38:16.715Z,13.10
2019-03-29T18:40:49.194Z,14.43
2019-03-29T18:43:20.355Z,13.87
2019-03-29T18:45:51.616Z,13.73
2019-03-29T18:48:23.027Z,14.10
2019-03-29T18:50:54.253Z,15.07
2019-03-29T18:53:25.616Z,15.20
2019-03-29T18:55:56.957Z,15.07
2019-03-29T18:58:28.314Z,15.20
2019-03-29T19:00:59.492Z,15.10
2019-03-29T19:03:30.900Z,15.73
2019-03-29T19:06:02.197Z,15.50
2019-03-29T19:08:33.449Z,14.67
2019-03-29T19:11:05.034Z,15.67
2019-03-29T19:13:36.416Z,16.10
2019-03-29T19:16:07.571Z,15.17
2019-03-29T19:18:38.869Z,17.43
2019-03-29T19:21:10.187Z,16.67
2019-03-29T19:23:41.508Z,17.43
2019-03-29T19:26:12.704Z,18.27
2019-03-29T19:28:43.976Z,16.70
2019-03-29T19:31:15.316Z,16.43
2019-03-29T19:33:46.572Z,16.30
2019-03-29T19:36:17.873Z,15.60
2019-03-29T19:38:49.198Z,16.33
2019-03-29T19:41:20.448Z,15.93
2019-03-29T19:43:51.741Z,16.40
2019-03-29T19:46:22.991Z,16.63
2019-03-29T19:48:54.377Z,16.03
2019-03-29T19:51:25.528Z,15.90
2019-03-29T19:54:07.247Z,16.37
2019-03-29T19:56:29.919Z,16.83
2019-03-29T19:59:01.127Z,16.17
2019-03-29T20:01:32.626Z,16.33
2019-03-29T20:04:03.934Z,16.67
2019-03-29T20:06:35.227Z,16.07
2019-03-29T20:09:09.053Z,14.70
2019-03-29T20:11:40.167Z,14.80
2019-03-29T20:14:11.374Z,14.60
2019-03-29T20:16:42.568Z,14.50
2019-03-29T20:19:13.897Z,13.63
2019-03-29T20:21:45.236Z,13.90
2019-03-29T20:24:16.483Z,14.23
2019-03-29T20:26:47.792Z,13.47
2019-03-29T20:29:18.987Z,13.27
2019-03-29T20:31:50.833Z,13.17
2019-03-29T20:34:23.171Z,13.37
2019-03-29T20:36:54.436Z,13.37
2019-03-29T20:39:25.907Z,13.80
2019-03-29T20:41:57.031Z,14.03
2019-03-29T20:44:28.204Z,12.83
2019-03-29T20:46:59.527Z,13.03
2019-03-29T20:49:30.744Z,12.63
2019-03-29T20:52:02.061Z,14.10
2019-03-29T20:54:33.331Z,13.00
2019-03-29T20:57:04.597Z,12.73
2019-03-29T20:59:35.791Z,14.10
2019-03-29T21:02:08.761Z,14.40
2019-03-29T21:04:40.046Z,14.93
2019-03-29T21:07:11.307Z,14.47
2019-03-29T21:09:42.561Z,14.30
2019-03-29T21:12:13.908Z,14.27
2019-03-29T21:14:45.165Z,13.83
2019-03-29T21:17:16.456Z,15.07
2019-03-29T21:19:47.751Z,15.57
2019-03-29T21:22:18.960Z,14.63
2019-03-29T21:24:50.221Z,16.97
2019-03-29T21:27:21.570Z,14.50
2019-03-29T21:29:52.927Z,14.20
2019-03-29T21:32:24.215Z,13.47
2019-03-29T21:34:55.378Z,13.33
2019-03-29T21:37:26.565Z,15.53
2019-03-29T21:39:57.868Z,12.70
2019-03-29T21:42:29.119Z,13.93
2019-03-29T21:45:00.344Z,13.50
2019-03-29T21:47:31.610Z,129.00
2019-03-29T21:50:02.904Z,60.20
2019-03-29T21:52:34.227Z,34.30
2019-03-29T21:55:06.528Z,12.10
2019-03-29T21:57:37.785Z,11.93
2019-03-29T22:00:11.038Z,11.93
2019-03-29T22:02:42.194Z,12.17
2019-03-29T22:05:13.585Z,11.97
2019-03-29T22:07:44.947Z,12.17
2019-03-29T22:10:16.362Z,11.87
2019-03-29T22:12:47.606Z,11.40
2019-03-29T22:15:18.908Z,11.73
2019-03-29T22:17:50.169Z,13.13
2019-03-29T22:20:21.279Z,14.50
2019-03-29T22:22:52.594Z,14.63
2019-03-29T22:25:23.877Z,12.60
2019-03-29T22:27:55.091Z,13.60
2019-03-29T22:30:26.386Z,12.40
2019-03-29T22:32:57.847Z,13.10
2019-03-29T22:35:29.050Z,12.07
2019-03-29T22:38:00.363Z,12.10
2019-03-29T22:40:31.560Z,11.23
2019-03-29T22:43:02.854Z,12.00
2019-03-29T22:45:34.058Z,12.63
2019-03-29T22:48:05.350Z,11.50
2019-03-29T22:50:36.523Z,11.80
2019-03-29T22:53:07.774Z,10.97
2019-03-29T22:55:38.940Z,11.50
2019-03-29T22:58:10.093Z,10.93
2019-03-29T23:00:46.472Z,11.13
2019-03-29T23:03:18.280Z,12.37
2019-03-29T23:05:49.500Z,11.13
2019-03-29T23:08:20.716Z,10.53
2019-03-29T23:10:51.960Z,11.77
2019-03-29T23:13:23.037Z,10.27
2019-03-29T23:15:54.306Z,10.83
2019-03-29T23:18:25.601Z,11.70
2019-03-29T23:20:56.851Z,11.93
2019-03-29T23:23:28.064Z,10.90
2019-03-29T23:25:59.386Z,11.80
2019-03-29T23:28:30.631Z,11.80
2019-03-29T23:31:05.395Z,13.13
2019-03-29T23:33:34.918Z,12.77
2019-03-29T23:36:06.134Z,11.00
2019-03-29T23:38:37.403Z,14.07
2019-03-29T23:41:08.616Z,11.07
2019-03-29T23:43:39.843Z,11.23
2019-03-29T23:46:11.061Z,12.20
2019-03-29T23:48:42.360Z,11.27
2019-03-29T23:51:13.476Z,11.67
2019-03-29T23:53:44.709Z,11.10
2019-03-29T23:56:16.085Z,11.13
2019-03-29T23:58:47.247Z,12.93
